Miami International Airport

Date: 2024-06-11 07:53:00Z

Type: METAR

Weather: Light Rain, Gusty Winds

Winds: 160° at 9 kts, Gusting to 19 kts

Visibility: 5

Ceiling (AGL FT): Clouds SCATTERED at 2000, BROKEN at 3000, BROKEN at 7000, BROKEN at 25000

RAW METAR: KMIA 110753Z 16009G19KT 5SM -RA BR SCT020 BKN030 BKN070 BKN250 26/24 A2987 RMK AO2 LTG DSNT E AND SE RAB47 SLP116 OCNL LTGIC DSNT E-S AND W-NW CB DSNT E-S AND W-NW MOV NE P0000 T02610239 $

project-image